createdAt,value
2018-04-29T00:00:30.887Z,57.40
2018-04-29T00:02:57.237Z,57.90
2018-04-29T00:05:23.586Z,58.00
2018-04-29T00:07:49.945Z,58.20
2018-04-29T00:10:16.320Z,58.60
2018-04-29T00:12:42.710Z,58.80
2018-04-29T00:15:09.970Z,58.80
2018-04-29T00:17:36.403Z,58.80
2018-04-29T00:20:02.773Z,59.10
2018-04-29T00:25:10.229Z,59.60
2018-04-29T00:27:37.321Z,59.90
2018-04-29T00:30:03.650Z,59.80
2018-04-29T00:32:30.789Z,60.20
2018-04-29T00:34:59.937Z,60.10
2018-04-29T00:37:26.303Z,60.60
2018-04-29T00:39:52.725Z,60.50
2018-04-29T00:42:19.842Z,60.80
2018-04-29T00:44:46.222Z,60.60
2018-04-29T00:47:12.561Z,60.20
2018-04-29T00:49:38.896Z,61.10
2018-04-29T00:52:06.228Z,61.20
2018-04-29T00:54:32.586Z,61.60
2018-04-29T00:56:58.960Z,61.60
2018-04-29T00:59:26.068Z,62.30
2018-04-29T01:01:52.418Z,62.00
2018-04-29T01:04:18.861Z,61.90
2018-04-29T01:06:46.700Z,62.70
2018-04-29T01:09:14.036Z,62.40
2018-04-29T01:11:40.401Z,62.40
2018-04-29T01:14:06.769Z,63.30
2018-04-29T01:16:33.103Z,62.10
2018-04-29T01:18:59.438Z,61.50
2018-04-29T01:21:26.513Z,62.50
2018-04-29T01:23:52.885Z,62.30
2018-04-29T01:26:19.202Z,62.10
2018-04-29T01:28:45.553Z,62.70
2018-04-29T01:31:12.014Z,62.80
2018-04-29T01:33:38.338Z,62.10
2018-04-29T01:36:05.570Z,63.20
2018-04-29T01:38:31.914Z,63.00
2018-04-29T01:40:58.270Z,63.80
2018-04-29T01:43:24.642Z,63.40
2018-04-29T01:45:51.144Z,63.50
2018-04-29T01:48:17.548Z,63.20
2018-04-29T01:50:44.869Z,63.10
2018-04-29T01:53:11.218Z,63.00
2018-04-29T01:55:38.485Z,63.70
2018-04-29T01:58:05.602Z,63.80
2018-04-29T02:00:31.978Z,63.70
2018-04-29T02:02:58.301Z,64.10
2018-04-29T02:05:25.530Z,64.80
2018-04-29T02:07:51.904Z,64.70
2018-04-29T02:10:18.270Z,64.70
2018-04-29T02:12:44.649Z,65.50
2018-04-29T02:15:11.616Z,65.40
2018-04-29T02:17:37.949Z,65.80
2018-04-29T02:20:04.342Z,66.30
2018-04-29T02:22:31.393Z,66.20
2018-04-29T02:24:58.734Z,66.10
2018-04-29T02:27:25.112Z,66.10
2018-04-29T02:29:51.492Z,66.70
2018-04-29T02:32:17.859Z,66.50
2018-04-29T02:34:44.278Z,67.30
2018-04-29T02:37:10.611Z,67.20
2018-04-29T02:39:37.698Z,67.60
2018-04-29T02:42:04.113Z,67.50
2018-04-29T02:44:30.492Z,67.40
2018-04-29T02:46:56.894Z,68.10
2018-04-29T02:49:23.247Z,67.60
2018-04-29T02:51:49.590Z,67.60
2018-04-29T02:54:16.010Z,68.00
2018-04-29T02:56:42.346Z,68.20
2018-04-29T02:59:08.765Z,68.10
2018-04-29T03:01:35.123Z,68.40
2018-04-29T03:04:01.521Z,67.40
2018-04-29T03:06:27.885Z,67.20
2018-04-29T03:08:54.221Z,67.00
2018-04-29T03:11:20.539Z,68.10
2018-04-29T03:13:46.969Z,68.10
2018-04-29T03:16:13.428Z,68.20
2018-04-29T03:18:39.796Z,69.00
2018-04-29T03:21:06.182Z,70.00
2018-04-29T03:23:32.562Z,70.60
2018-04-29T03:25:59.070Z,70.60
2018-04-29T03:28:26.155Z,70.80
2018-04-29T03:30:52.521Z,70.70
2018-04-29T03:33:18.882Z,70.30
2018-04-29T03:35:46.212Z,70.60
2018-04-29T03:38:12.540Z,70.40
2018-04-29T03:40:38.894Z,70.60
2018-04-29T03:43:05.230Z,70.10
2018-04-29T03:45:31.674Z,69.50
2018-04-29T03:47:58.098Z,68.80
2018-04-29T03:50:24.430Z,69.00
2018-04-29T03:52:50.852Z,68.40
2018-04-29T03:55:18.890Z,68.90
2018-04-29T03:57:57.444Z,69.00
2018-04-29T04:00:40.637Z,68.90
2018-04-29T04:03:19.226Z,68.80
2018-04-29T04:05:45.749Z,68.90
2018-04-29T04:08:12.094Z,69.10
2018-04-29T04:10:38.466Z,69.20
2018-04-29T04:13:05.535Z,68.70
2018-04-29T04:15:32.785Z,68.80
2018-04-29T04:17:59.159Z,68.70
2018-04-29T04:20:25.489Z,68.40
2018-04-29T04:22:51.851Z,68.80
2018-04-29T04:25:18.362Z,69.10
2018-04-29T04:27:44.810Z,68.90
2018-04-29T04:30:11.186Z,69.30
2018-04-29T04:32:37.567Z,69.10
2018-04-29T04:35:04.165Z,69.20
2018-04-29T04:37:30.540Z,69.50
2018-04-29T04:39:56.902Z,69.70
2018-04-29T04:42:24.018Z,69.70
2018-04-29T04:44:50.605Z,69.40
2018-04-29T04:47:16.955Z,69.70
2018-04-29T04:49:43.299Z,69.30
2018-04-29T04:52:09.698Z,69.10
2018-04-29T04:54:36.178Z,69.20
2018-04-29T04:57:02.567Z,69.00
2018-04-29T04:59:28.974Z,68.90
2018-04-29T05:01:56.078Z,68.90
2018-04-29T05:04:22.485Z,68.80
2018-04-29T05:06:49.014Z,68.80
2018-04-29T05:09:15.419Z,69.30
2018-04-29T05:11:42.503Z,70.00
2018-04-29T05:14:08.888Z,69.00
2018-04-29T05:16:35.250Z,69.10
2018-04-29T05:19:02.354Z,68.60
2018-04-29T05:21:28.742Z,68.50
2018-04-29T05:23:55.102Z,67.10
2018-04-29T05:26:21.514Z,65.20
2018-04-29T05:28:47.943Z,62.80
2018-04-29T05:31:14.309Z,60.50
2018-04-29T05:33:40.649Z,59.50
2018-04-29T05:36:07.282Z,59.20
2018-04-29T05:38:33.629Z,59.10
2018-04-29T05:41:00.096Z,59.00
2018-04-29T05:43:26.427Z,58.60
2018-04-29T05:45:53.703Z,58.80
2018-04-29T05:48:20.069Z,58.70
2018-04-29T05:50:47.174Z,59.40
2018-04-29T05:53:13.542Z,59.30
2018-04-29T05:55:40.139Z,59.40
2018-04-29T05:58:06.551Z,59.30
2018-04-29T06:00:32.912Z,58.60
2018-04-29T06:02:59.253Z,58.40
2018-04-29T06:05:25.656Z,58.30
2018-04-29T06:07:52.731Z,58.20
2018-04-29T06:10:19.912Z,58.40
2018-04-29T06:12:46.459Z,58.30
2018-04-29T06:15:13.024Z,58.80
2018-04-29T06:17:39.341Z,57.80
2018-04-29T06:20:06.405Z,56.60
2018-04-29T06:22:32.749Z,56.60
2018-04-29T06:25:04.501Z,56.10
2018-04-29T06:27:30.849Z,55.80
2018-04-29T06:29:57.202Z,55.90
2018-04-29T06:32:23.546Z,54.90
2018-04-29T06:34:50.374Z,53.40
2018-04-29T06:37:16.740Z,49.70
2018-04-29T06:39:43.106Z,49.00
2018-04-29T06:42:10.231Z,47.90
2018-04-29T06:44:37.583Z,46.00
2018-04-29T06:47:04.661Z,44.20
2018-04-29T06:49:31.042Z,44.20
2018-04-29T06:51:57.393Z,44.50
2018-04-29T06:54:24.690Z,43.80
2018-04-29T06:56:51.041Z,43.80
2018-04-29T06:59:18.137Z,42.10
2018-04-29T07:01:44.485Z,42.10
2018-04-29T07:04:10.976Z,41.40
2018-04-29T07:06:38.083Z,41.60
2018-04-29T07:09:04.517Z,41.50
2018-04-29T07:11:30.873Z,44.60
2018-04-29T07:13:57.250Z,42.50
2018-04-29T07:16:23.590Z,42.00
2018-04-29T07:18:49.931Z,40.10
2018-04-29T07:21:16.450Z,39.60
2018-04-29T07:23:42.886Z,38.70
2018-04-29T07:26:09.225Z,39.20
2018-04-29T07:28:35.602Z,40.10
2018-04-29T07:31:01.965Z,39.40
2018-04-29T07:33:29.052Z,38.90
2018-04-29T07:35:56.182Z,39.00
2018-04-29T07:38:22.584Z,39.00
2018-04-29T07:40:49.705Z,38.10
2018-04-29T07:43:16.138Z,37.90
2018-04-29T07:45:42.847Z,36.90
2018-04-29T07:48:09.253Z,39.10
2018-04-29T07:50:35.671Z,37.20
2018-04-29T07:53:02.789Z,37.30
2018-04-29T07:55:29.342Z,37.30
2018-04-29T07:57:57.194Z,35.60
2018-04-29T08:00:23.551Z,35.50
2018-04-29T08:02:50.709Z,35.90
2018-04-29T08:05:17.849Z,35.90
2018-04-29T08:07:44.950Z,34.30
2018-04-29T08:10:11.294Z,34.30
2018-04-29T08:12:37.658Z,34.90
2018-04-29T08:15:06.746Z,31.80
2018-04-29T08:17:33.283Z,31.20
2018-04-29T08:19:59.689Z,32.70
2018-04-29T08:22:26.082Z,32.20
2018-04-29T08:24:52.638Z,31.60
2018-04-29T08:27:19.111Z,30.50
2018-04-29T08:29:45.509Z,30.30
2018-04-29T08:32:11.869Z,30.60
2018-04-29T08:34:38.445Z,30.50
2018-04-29T08:37:04.854Z,30.20
2018-04-29T08:39:31.217Z,31.20
2018-04-29T08:41:58.283Z,31.20
2018-04-29T08:44:25.661Z,31.90
2018-04-29T08:46:52.787Z,32.30
2018-04-29T08:49:19.203Z,32.20
2018-04-29T08:51:45.554Z,32.80
2018-04-29T08:54:11.962Z,30.00
2018-04-29T08:56:38.315Z,30.00
2018-04-29T08:59:04.697Z,30.90
2018-04-29T09:01:31.102Z,31.80
2018-04-29T09:03:58.928Z,29.90
2018-04-29T09:06:26.038Z,30.10
2018-04-29T09:08:52.446Z,30.00
2018-04-29T09:11:19.134Z,29.40
2018-04-29T09:13:45.585Z,29.90
2018-04-29T09:16:11.957Z,33.80
2018-04-29T09:18:38.304Z,34.60
2018-04-29T09:21:04.666Z,35.00
2018-04-29T09:23:31.773Z,31.30
2018-04-29T09:25:58.113Z,31.30
2018-04-29T09:28:24.552Z,30.80
2018-04-29T09:30:50.950Z,28.70
2018-04-29T09:33:18.108Z,29.80
2018-04-29T09:35:44.469Z,29.70
2018-04-29T09:38:10.802Z,29.20
2018-04-29T09:40:37.922Z,28.30
2018-04-29T09:43:04.302Z,28.30
2018-04-29T09:45:30.692Z,27.90
2018-04-29T09:47:57.065Z,27.40
2018-04-29T09:50:23.448Z,27.30
2018-04-29T09:52:50.585Z,32.20
2018-04-29T09:55:16.929Z,32.20
2018-04-29T09:57:43.340Z,32.50
2018-04-29T10:00:09.742Z,30.90
2018-04-29T10:02:36.245Z,31.00
2018-04-29T10:05:02.690Z,27.20
2018-04-29T10:07:29.017Z,28.30
2018-04-29T10:09:55.389Z,27.30
2018-04-29T10:12:21.731Z,25.90
2018-04-29T10:14:48.381Z,26.20
2018-04-29T10:17:14.731Z,25.80
2018-04-29T10:19:41.101Z,25.10
2018-04-29T10:22:08.182Z,22.90
2018-04-29T10:24:34.689Z,22.90
2018-04-29T10:27:01.094Z,22.80
2018-04-29T10:29:27.429Z,23.40
2018-04-29T10:31:54.509Z,23.30
2018-04-29T10:34:21.778Z,21.20
2018-04-29T10:36:48.163Z,21.10
2018-04-29T10:39:14.536Z,21.60
2018-04-29T10:41:42.288Z,21.20
2018-04-29T10:44:09.053Z,21.00
2018-04-29T10:46:35.409Z,19.40
2018-04-29T10:49:01.750Z,19.80
2018-04-29T10:51:28.113Z,19.50
2018-04-29T10:53:55.254Z,19.10
2018-04-29T10:56:22.398Z,17.70
2018-04-29T10:58:49.511Z,19.20
2018-04-29T11:01:15.896Z,19.10
2018-04-29T11:03:42.256Z,18.50
2018-04-29T11:06:08.610Z,18.60
2018-04-29T11:08:34.941Z,19.30
2018-04-29T11:11:01.305Z,18.70
2018-04-29T11:13:28.506Z,20.80
2018-04-29T11:15:54.841Z,21.30
2018-04-29T11:18:21.201Z,21.70
2018-04-29T11:20:47.574Z,19.00
2018-04-29T11:23:14.710Z,20.40
2018-04-29T11:25:41.809Z,19.10
2018-04-29T11:28:08.143Z,19.10
2018-04-29T11:30:34.501Z,18.60
2018-04-29T11:33:00.842Z,18.40
2018-04-29T11:35:27.954Z,17.90
2018-04-29T11:37:54.388Z,17.80
2018-04-29T11:40:20.893Z,18.60
2018-04-29T11:42:47.261Z,19.90
2018-04-29T11:45:13.609Z,20.10
2018-04-29T11:47:39.933Z,19.30
2018-04-29T11:50:06.290Z,18.80
2018-04-29T11:52:33.365Z,19.20
2018-04-29T11:55:00.165Z,19.20
2018-04-29T11:57:27.293Z,19.40
2018-04-29T11:59:53.674Z,19.30
2018-04-29T12:02:20.078Z,19.70
2018-04-29T12:04:47.251Z,20.20
2018-04-29T12:07:13.630Z,20.10
2018-04-29T12:09:39.965Z,20.60
2018-04-29T12:12:06.289Z,19.60
2018-04-29T12:14:32.758Z,20.70
2018-04-29T12:16:59.826Z,20.40
2018-04-29T12:19:26.922Z,19.50
2018-04-29T12:21:53.279Z,19.40
2018-04-29T12:24:20.626Z,20.10
2018-04-29T12:26:46.990Z,20.10
2018-04-29T12:29:13.354Z,21.40
2018-04-29T12:31:39.695Z,21.40
2018-04-29T12:34:06.299Z,21.10
2018-04-29T12:36:32.641Z,20.20
2018-04-29T12:38:58.999Z,19.90
2018-04-29T12:41:25.414Z,20.50
2018-04-29T12:43:51.910Z,20.30
2018-04-29T12:46:19.022Z,20.00
2018-04-29T12:48:45.353Z,20.00
2018-04-29T12:51:11.702Z,20.10
2018-04-29T12:53:41.394Z,19.30
2018-04-29T12:56:07.885Z,19.30
2018-04-29T12:58:34.234Z,20.10
2018-04-29T13:01:01.333Z,19.00
2018-04-29T13:03:37.227Z,18.30
2018-04-29T13:06:03.829Z,18.30
2018-04-29T13:08:30.922Z,20.00
2018-04-29T13:10:57.337Z,20.00
2018-04-29T13:13:23.657Z,18.30
2018-04-29T13:15:50.469Z,18.30
2018-04-29T13:18:16.841Z,19.00
2018-04-29T13:20:43.179Z,19.70
2018-04-29T13:23:10.285Z,20.40
2018-04-29T13:25:37.674Z,18.10
2018-04-29T13:28:04.011Z,18.10
2018-04-29T13:30:30.353Z,18.00
2018-04-29T13:32:56.674Z,18.70
2018-04-29T13:35:23.320Z,19.20
2018-04-29T13:37:50.535Z,20.40
2018-04-29T13:40:17.670Z,21.00
2018-04-29T13:42:44.784Z,20.80
2018-04-29T13:45:11.178Z,20.70
2018-04-29T13:47:37.538Z,20.70
2018-04-29T13:50:03.876Z,22.00
2018-04-29T13:52:30.289Z,21.60
2018-04-29T13:54:56.585Z,21.60
2018-04-29T13:57:23.653Z,23.70
2018-04-29T13:59:49.977Z,23.60
2018-04-29T14:02:17.204Z,22.60
2018-04-29T14:04:43.522Z,22.90
2018-04-29T14:07:09.931Z,22.10
2018-04-29T14:09:37.034Z,23.20
2018-04-29T14:12:03.374Z,23.10
2018-04-29T14:14:29.670Z,22.10
2018-04-29T14:16:55.999Z,21.90
2018-04-29T14:19:22.423Z,21.60
2018-04-29T14:21:48.757Z,22.20
2018-04-29T14:24:17.242Z,22.90
2018-04-29T14:26:43.613Z,24.10
2018-04-29T14:29:09.953Z,23.70
2018-04-29T14:31:36.396Z,23.80
2018-04-29T14:34:02.753Z,23.90
2018-04-29T14:36:29.102Z,23.80
2018-04-29T14:38:55.433Z,23.90
2018-04-29T14:41:22.522Z,24.30
2018-04-29T14:43:48.918Z,24.30
2018-04-29T14:46:15.262Z,23.60
2018-04-29T14:48:42.333Z,24.30
2018-04-29T14:51:08.679Z,24.30
2018-04-29T14:53:35.860Z,24.50
2018-04-29T14:56:03.761Z,24.40
2018-04-29T14:58:30.854Z,23.90
2018-04-29T15:00:57.242Z,23.90
2018-04-29T15:03:24.413Z,24.10
2018-04-29T15:05:51.281Z,24.10
2018-04-29T15:08:18.363Z,23.80
2018-04-29T15:10:44.709Z,23.80
2018-04-29T15:13:11.793Z,25.20
2018-04-29T15:15:39.102Z,24.00
2018-04-29T15:18:05.534Z,24.00
2018-04-29T15:20:31.877Z,23.40
2018-04-29T15:22:59.023Z,22.80
2018-04-29T15:25:26.243Z,24.00
2018-04-29T15:27:52.581Z,23.90
2018-04-29T15:30:18.968Z,23.70
2018-04-29T15:32:45.362Z,23.90
2018-04-29T15:35:12.653Z,23.00
2018-04-29T15:37:38.988Z,23.00
2018-04-29T15:40:06.093Z,23.10
2018-04-29T15:42:32.781Z,23.10
2018-04-29T15:44:59.402Z,23.00
2018-04-29T15:47:25.802Z,23.70
2018-04-29T15:49:52.574Z,22.90
2018-04-29T15:52:18.881Z,23.70
2018-04-29T15:54:46.153Z,23.40
2018-04-29T15:57:12.482Z,23.40
2018-04-29T15:59:39.115Z,23.50
2018-04-29T16:02:06.247Z,24.30
2018-04-29T16:04:33.509Z,24.70
2018-04-29T16:07:00.020Z,24.60
2018-04-29T16:09:26.354Z,24.20
2018-04-29T16:11:53.191Z,23.70
2018-04-29T16:14:19.518Z,24.10
2018-04-29T16:16:45.866Z,24.00
2018-04-29T16:19:12.225Z,24.10
2018-04-29T16:21:38.562Z,24.50
2018-04-29T16:24:04.922Z,25.20
2018-04-29T16:26:31.289Z,25.70
2018-04-29T16:28:57.680Z,25.20
2018-04-29T16:31:24.141Z,25.10
2018-04-29T16:33:50.546Z,25.10
2018-04-29T16:36:16.908Z,25.70
2018-04-29T16:38:43.225Z,25.40
2018-04-29T16:41:09.590Z,25.40
2018-04-29T16:43:36.709Z,26.50
2018-04-29T16:46:03.112Z,26.40
2018-04-29T16:48:29.625Z,25.90
2018-04-29T16:50:56.071Z,24.80
2018-04-29T16:53:23.217Z,25.00
2018-04-29T16:55:49.834Z,25.00
2018-04-29T16:58:16.929Z,25.90
2018-04-29T17:00:43.274Z,25.90
2018-04-29T17:03:09.629Z,25.40
2018-04-29T17:05:36.946Z,25.70
2018-04-29T17:08:03.281Z,25.60
2018-04-29T17:10:29.606Z,26.00
2018-04-29T17:12:56.010Z,26.20
2018-04-29T17:15:22.809Z,25.70
2018-04-29T17:17:49.155Z,25.60
2018-04-29T17:20:16.266Z,26.40
2018-04-29T17:22:42.605Z,26.30
2018-04-29T17:25:09.183Z,26.50
2018-04-29T17:27:35.549Z,26.50
2018-04-29T17:30:01.905Z,26.60
2018-04-29T17:32:28.234Z,27.20
2018-04-29T17:34:56.375Z,27.00
2018-04-29T17:37:22.733Z,27.00
2018-04-29T17:39:49.100Z,27.00
2018-04-29T17:42:16.212Z,27.10
2018-04-29T17:44:42.708Z,27.00
2018-04-29T17:47:09.079Z,27.10
2018-04-29T17:49:35.858Z,27.60
2018-04-29T17:52:02.939Z,28.10
2018-04-29T17:54:29.501Z,28.10
2018-04-29T17:56:55.954Z,28.00
2018-04-29T17:59:22.337Z,28.60
2018-04-29T18:01:48.714Z,28.20
2018-04-29T18:04:15.073Z,28.50
2018-04-29T18:06:42.150Z,28.40
2018-04-29T18:09:08.530Z,28.40
2018-04-29T18:11:34.874Z,28.60
2018-04-29T18:14:01.941Z,28.40
2018-04-29T18:16:29.091Z,28.60
2018-04-29T18:18:55.442Z,28.50
2018-04-29T18:21:21.817Z,28.60
2018-04-29T18:23:48.181Z,28.60
2018-04-29T18:26:15.302Z,28.50
2018-04-29T18:28:41.679Z,28.70
2018-04-29T18:31:08.030Z,28.70
2018-04-29T18:33:34.354Z,29.20
2018-04-29T18:36:00.702Z,29.50
2018-04-29T18:38:27.202Z,29.70
2018-04-29T18:40:53.707Z,29.80
2018-04-29T18:43:20.786Z,30.00
2018-04-29T18:45:47.177Z,30.00
2018-04-29T18:48:13.508Z,29.90
2018-04-29T18:50:40.006Z,29.90
2018-04-29T18:53:06.241Z,30.30
2018-04-29T18:55:33.476Z,30.80
2018-04-29T18:57:59.837Z,30.70
2018-04-29T19:00:26.989Z,31.30
2018-04-29T19:02:53.738Z,31.20
2018-04-29T19:05:20.239Z,30.90
2018-04-29T19:07:46.592Z,31.50
2018-04-29T19:10:12.974Z,31.40
2018-04-29T19:12:39.333Z,31.30
2018-04-29T19:15:05.765Z,31.30
2018-04-29T19:17:32.725Z,31.00
2018-04-29T19:19:59.862Z,30.20
2018-04-29T19:22:26.310Z,30.00
2018-04-29T19:24:52.838Z,30.10
2018-04-29T19:27:19.230Z,29.70
2018-04-29T19:29:46.319Z,30.00
2018-04-29T19:32:12.698Z,30.00
2018-04-29T19:34:40.037Z,31.20
2018-04-29T19:37:06.410Z,31.20
2018-04-29T19:39:32.752Z,32.00
2018-04-29T19:41:59.852Z,33.20
2018-04-29T19:44:26.406Z,33.10
2018-04-29T19:46:53.645Z,33.90
2018-04-29T19:49:20.091Z,33.80
2018-04-29T19:51:47.242Z,34.70
2018-04-29T19:57:11.991Z,35.00
2018-04-29T19:59:38.265Z,34.90
2018-04-29T20:02:04.702Z,35.30
2018-04-29T20:04:32.113Z,36.20
2018-04-29T20:06:58.492Z,36.20
2018-04-29T20:09:25.799Z,36.60
2018-04-29T20:11:52.655Z,36.50
2018-04-29T20:14:18.989Z,36.70
2018-04-29T20:16:45.385Z,36.80
2018-04-29T20:19:11.790Z,36.80
2018-04-29T20:21:38.929Z,37.50
2018-04-29T20:24:06.076Z,38.10
2018-04-29T20:26:33.232Z,38.20
2018-04-29T20:29:00.314Z,38.40
2018-04-29T20:31:26.670Z,38.30
2018-04-29T20:33:53.037Z,38.60
2018-04-29T20:36:19.456Z,38.70
2018-04-29T20:38:45.793Z,39.00
2018-04-29T20:41:12.919Z,39.10
2018-04-29T20:43:39.290Z,39.10
2018-04-29T20:46:06.367Z,39.20
2018-04-29T20:48:32.758Z,39.00
2018-04-29T20:50:59.134Z,39.50
2018-04-29T20:53:25.586Z,39.60
2018-04-29T20:55:51.989Z,39.40
2018-04-29T20:58:18.334Z,39.10
2018-04-29T21:00:44.728Z,38.80
2018-04-29T21:03:11.871Z,39.10
2018-04-29T21:05:38.205Z,39.00
2018-04-29T21:08:05.352Z,38.90
2018-04-29T21:10:31.706Z,38.80
2018-04-29T21:12:58.138Z,39.20
2018-04-29T21:15:24.782Z,38.80
2018-04-29T21:17:51.161Z,38.50
2018-04-29T21:20:17.521Z,38.80
2018-04-29T21:22:44.663Z,38.30
2018-04-29T21:25:11.171Z,38.20
2018-04-29T21:27:37.602Z,38.70
2018-04-29T21:30:04.231Z,39.30
2018-04-29T21:32:30.588Z,39.20
2018-04-29T21:34:57.382Z,40.00
2018-04-29T21:37:23.801Z,39.90
2018-04-29T21:39:50.397Z,39.90
2018-04-29T21:42:16.809Z,40.10
2018-04-29T21:44:43.662Z,40.30
2018-04-29T21:47:10.135Z,40.90
2018-04-29T21:49:37.245Z,41.40
2018-04-29T21:52:03.638Z,41.30
2018-04-29T21:54:30.130Z,41.60
2018-04-29T21:56:56.652Z,41.60
2018-04-29T21:59:23.010Z,41.60
2018-04-29T22:01:50.141Z,42.00
2018-04-29T22:04:21.874Z,41.90
2018-04-29T22:06:48.229Z,41.90
2018-04-29T22:09:15.239Z,41.70
2018-04-29T22:11:41.599Z,41.70
2018-04-29T22:14:08.350Z,42.00
2018-04-29T22:16:34.792Z,42.20
2018-04-29T22:19:01.867Z,41.80
2018-04-29T22:21:28.602Z,41.80
2018-04-29T22:23:55.020Z,42.40
2018-04-29T22:26:21.666Z,41.70
2018-04-29T22:28:48.794Z,42.00
2018-04-29T22:31:15.131Z,42.00
2018-04-29T22:33:41.503Z,42.20
2018-04-29T22:36:07.898Z,42.60
2018-04-29T22:38:35.026Z,42.70
2018-04-29T22:41:01.370Z,42.70
2018-04-29T22:43:27.966Z,42.60
2018-04-29T22:45:55.278Z,41.90
2018-04-29T22:48:22.729Z,42.90
2018-04-29T22:53:33.525Z,43.10
2018-04-29T22:56:01.352Z,43.00
2018-04-29T22:58:28.718Z,43.00
2018-04-29T23:00:55.322Z,42.80
2018-04-29T23:03:21.726Z,42.70
2018-04-29T23:05:48.273Z,42.70
2018-04-29T23:08:14.625Z,42.20
2018-04-29T23:10:40.994Z,42.30
2018-04-29T23:13:07.838Z,42.30
2018-04-29T23:15:35.375Z,41.70
2018-04-29T23:18:01.813Z,41.70
2018-04-29T23:20:28.285Z,41.80
2018-04-29T23:22:55.393Z,42.20
2018-04-29T23:25:22.167Z,42.10
2018-04-29T23:27:49.277Z,41.40
2018-04-29T23:30:15.662Z,41.40
2018-04-29T23:32:42.016Z,41.00
2018-04-29T23:35:08.526Z,40.90
2018-04-29T23:37:34.853Z,39.80
2018-04-29T23:40:01.189Z,38.90
2018-04-29T23:42:27.589Z,37.00
2018-04-29T23:44:54.018Z,36.40
2018-04-29T23:47:21.106Z,35.10
2018-04-29T23:49:47.477Z,34.90
2018-04-29T23:52:13.852Z,34.90
2018-04-29T23:54:41.104Z,34.10
2018-04-29T23:57:08.193Z,34.30
2018-04-29T23:59:34.592Z,34.20
